sensor_id;sensor_type;location;lat;lon;timestamp;pressure;altitude;pressure_sealevel;temperature;humidity
14612;BME280;7392;52.078;11.650;2022-11-15T00:02:12;100634.97;;;4.30;100.00
14612;BME280;7392;52.078;11.650;2022-11-15T00:04:59;100627.97;;;4.29;100.00
14612;BME280;7392;52.078;11.650;2022-11-15T00:07:47;100628.84;;;4.29;100.00
14612;BME280;7392;52.078;11.650;2022-11-15T00:10:39;100629.72;;;4.30;100.00
14612;BME280;7392;52.078;11.650;2022-11-15T00:13:27;100629.69;;;4.28;100.00
14612;BME280;7392;52.078;11.650;2022-11-15T00:16:14;100621.75;;;4.27;100.00
14612;BME280;7392;52.078;11.650;2022-11-15T00:19:01;100625.31;;;4.27;100.00
14612;BME280;7392;52.078;11.650;2022-11-15T00:21:47;100623.47;;;4.25;100.00
14612;BME280;7392;52.078;11.650;2022-11-15T00:24:35;100616.50;;;4.25;100.00
14612;BME280;7392;52.078;11.650;2022-11-15T00:27:21;100627.03;;;4.25;100.00
14612;BME280;7392;52.078;11.650;2022-11-15T00:30:09;100623.41;;;4.22;100.00
14612;BME280;7392;52.078;11.650;2022-11-15T00:32:55;100622.50;;;4.20;100.00
14612;BME280;7392;52.078;11.650;2022-11-15T00:35:42;100631.19;;;4.16;100.00
14612;BME280;7392;52.078;11.650;2022-11-15T00:38:31;100631.25;;;4.19;100.00
14612;BME280;7392;52.078;11.650;2022-11-15T00:41:19;100634.72;;;4.18;100.00
14612;BME280;7392;52.078;11.650;2022-11-15T00:44:06;100630.41;;;4.21;100.00
14612;BME280;7392;52.078;11.650;2022-11-15T00:46:53;100630.41;;;4.21;100.00
14612;BME280;7392;52.078;11.650;2022-11-15T00:49:39;100626.91;;;4.21;100.00
14612;BME280;7392;52.078;11.650;2022-11-15T00:52:26;100618.16;;;4.20;100.00
14612;BME280;7392;52.078;11.650;2022-11-15T00:55:13;100621.59;;;4.18;100.00
14612;BME280;7392;52.078;11.650;2022-11-15T00:58:02;100611.88;;;4.14;100.00
14612;BME280;7392;52.078;11.650;2022-11-15T01:00:48;100604.75;;;4.09;100.00
14612;BME280;7392;52.078;11.650;2022-11-15T01:03:35;100606.50;;;4.09;100.00
14612;BME280;7392;52.078;11.650;2022-11-15T01:06:22;100606.47;;;4.07;100.00
14612;BME280;7392;52.078;11.650;2022-11-15T01:09:08;100611.72;;;4.07;100.00
14612;BME280;7392;52.078;11.650;2022-11-15T01:11:55;100608.22;;;4.07;100.00
14612;BME280;7392;52.078;11.650;2022-11-15T01:14:43;100610.81;;;4.05;100.00
14612;BME280;7392;52.078;11.650;2022-11-15T01:17:29;100609.09;;;4.07;100.00
14612;BME280;7392;52.078;11.650;2022-11-15T01:20:16;100602.13;;;4.09;100.00
14612;BME280;7392;52.078;11.650;2022-11-15T01:23:03;100600.44;;;4.13;100.00
14612;BME280;7392;52.078;11.650;2022-11-15T01:25:50;100599.59;;;4.14;100.00
14612;BME280;7392;52.078;11.650;2022-11-15T01:28:38;100594.44;;;4.19;100.00
14612;BME280;7392;52.078;11.650;2022-11-15T01:31:26;100588.28;;;4.18;100.00
14612;BME280;7392;52.078;11.650;2022-11-15T01:34:13;100586.50;;;4.16;100.00
14612;BME280;7392;52.078;11.650;2022-11-15T01:37:00;100587.34;;;4.15;100.00
14612;BME280;7392;52.078;11.650;2022-11-15T01:39:46;100588.25;;;4.15;100.00
14612;BME280;7392;52.078;11.650;2022-11-15T01:42:33;100589.97;;;4.15;100.00
14612;BME280;7392;52.078;11.650;2022-11-15T01:45:19;100590.00;;;4.16;100.00
14612;BME280;7392;52.078;11.650;2022-11-15T01:48:09;100593.50;;;4.15;100.00
14612;BME280;7392;52.078;11.650;2022-11-15T01:50:56;100589.03;;;4.12;100.00
14612;BME280;7392;52.078;11.650;2022-11-15T01:53:45;100585.53;;;4.12;100.00
14612;BME280;7392;52.078;11.650;2022-11-15T01:56:38;100576.75;;;4.11;100.00
14612;BME280;7392;52.078;11.650;2022-11-15T01:59:28;100576.69;;;4.08;100.00
14612;BME280;7392;52.078;11.650;2022-11-15T02:02:14;100575.78;;;4.08;100.00
14612;BME280;7392;52.078;11.650;2022-11-15T02:05:03;100578.44;;;4.08;100.00
14612;BME280;7392;52.078;11.650;2022-11-15T02:07:49;100577.53;;;4.07;100.00
14612;BME280;7392;52.078;11.650;2022-11-15T02:10:36;100579.25;;;4.05;100.00
14612;BME280;7392;52.078;11.650;2022-11-15T02:13:22;100574.81;;;4.03;100.00
14612;BME280;7392;52.078;11.650;2022-11-15T02:16:14;100571.31;;;4.02;100.00
14612;BME280;7392;52.078;11.650;2022-11-15T02:19:13;100566.88;;;4.01;100.00
14612;BME280;7392;52.078;11.650;2022-11-15T02:22:16;100566.88;;;4.01;100.00
14612;BME280;7392;52.078;11.650;2022-11-15T02:25:18;100561.63;;;4.01;100.00
14612;BME280;7392;52.078;11.650;2022-11-15T02:28:29;100566.91;;;4.03;100.00
14612;BME280;7392;52.078;11.650;2022-11-15T02:31:28;100570.50;;;4.05;100.00
14612;BME280;7392;52.078;11.650;2022-11-15T02:34:22;100568.78;;;4.07;100.00
14612;BME280;7392;52.078;11.650;2022-11-15T02:37:15;100550.38;;;4.07;100.00
14612;BME280;7392;52.078;11.650;2022-11-15T02:40:11;100553.84;;;4.06;100.00
14612;BME280;7392;52.078;11.650;2022-11-15T02:43:05;100549.47;;;4.06;100.00
14612;BME280;7392;52.078;11.650;2022-11-15T02:46:14;100547.72;;;4.05;100.00
14612;BME280;7392;52.078;11.650;2022-11-15T02:49:06;100551.19;;;4.04;100.00
14612;BME280;7392;52.078;11.650;2022-11-15T02:51:54;100540.59;;;4.00;100.00
14612;BME280;7392;52.078;11.650;2022-11-15T02:54:41;100536.22;;;4.00;100.00
14612;BME280;7392;52.078;11.650;2022-11-15T02:57:36;100536.22;;;4.00;100.00
14612;BME280;7392;52.078;11.650;2022-11-15T03:00:25;100531.00;;;4.02;100.00
14612;BME280;7392;52.078;11.650;2022-11-15T03:03:32;100531.88;;;4.02;100.00
14612;BME280;7392;52.078;11.650;2022-11-15T03:06:29;100531.00;;;4.02;100.00
14612;BME280;7392;52.078;11.650;2022-11-15T03:09:27;100533.69;;;4.05;100.00
14612;BME280;7392;52.078;11.650;2022-11-15T03:12:23;100529.28;;;4.04;100.00
14612;BME280;7392;52.078;11.650;2022-11-15T03:15:17;100530.16;;;4.04;100.00
14612;BME280;7392;52.078;11.650;2022-11-15T03:18:11;100528.41;;;4.03;100.00
14612;BME280;7392;52.078;11.650;2022-11-15T03:21:00;100524.88;;;4.03;100.00
14612;BME280;7392;52.078;11.650;2022-11-15T03:23:51;100529.31;;;4.05;100.00
14612;BME280;7392;52.078;11.650;2022-11-15T03:26:40;100529.28;;;4.04;100.00
14612;BME280;7392;52.078;11.650;2022-11-15T03:29:32;100531.88;;;4.02;100.00
14612;BME280;7392;52.078;11.650;2022-11-15T03:32:24;100533.59;;;4.00;100.00
14612;BME280;7392;52.078;11.650;2022-11-15T03:35:14;100535.31;;;3.98;100.00
14612;BME280;7392;52.078;11.650;2022-11-15T03:38:08;100535.22;;;3.95;100.00
14612;BME280;7392;52.078;11.650;2022-11-15T03:40:59;100529.91;;;3.92;100.00
14612;BME280;7392;52.078;11.650;2022-11-15T03:43:50;100541.22;;;3.89;100.00
14612;BME280;7392;52.078;11.650;2022-11-15T03:46:43;100540.31;;;3.87;100.00
14612;BME280;7392;52.078;11.650;2022-11-15T03:49:34;100534.97;;;3.83;100.00
14612;BME280;7392;52.078;11.650;2022-11-15T03:52:21;100529.63;;;3.78;100.00
14612;BME280;7392;52.078;11.650;2022-11-15T03:55:11;100526.03;;;3.74;100.00
14612;BME280;7392;52.078;11.650;2022-11-15T03:58:00;100516.38;;;3.73;100.00
14612;BME280;7392;52.078;11.650;2022-11-15T04:00:46;100522.50;;;3.74;100.00
14612;BME280;7392;52.078;11.650;2022-11-15T04:03:33;100526.88;;;3.73;100.00
14612;BME280;7392;52.078;11.650;2022-11-15T04:06:19;100534.69;;;3.70;100.00
14612;BME280;7392;52.078;11.650;2022-11-15T04:09:06;100528.47;;;3.67;100.00
14612;BME280;7392;52.078;11.650;2022-11-15T04:11:52;100527.56;;;3.65;100.00
14612;BME280;7392;52.078;11.650;2022-11-15T04:14:40;100518.81;;;3.64;100.00
14612;BME280;7392;52.078;11.650;2022-11-15T04:17:48;100521.44;;;3.64;100.00
14612;BME280;7392;52.078;11.650;2022-11-15T04:20:35;100518.75;;;3.63;100.00
14612;BME280;7392;52.078;11.650;2022-11-15T04:23:38;100502.09;;;3.61;100.00
14612;BME280;7392;52.078;11.650;2022-11-15T04:26:42;100508.19;;;3.60;100.00
14612;BME280;7392;52.078;11.650;2022-11-15T04:29:29;100506.38;;;3.57;100.00
14612;BME280;7392;52.078;11.650;2022-11-15T04:32:22;100505.53;;;3.58;100.00
14612;BME280;7392;52.078;11.650;2022-11-15T04:35:09;100504.59;;;3.56;100.00
14612;BME280;7392;52.078;11.650;2022-11-15T04:37:57;100507.34;;;3.61;100.00
14612;BME280;7392;52.078;11.650;2022-11-15T04:40:43;100503.81;;;3.60;100.00
14612;BME280;7392;52.078;11.650;2022-11-15T04:43:29;100506.41;;;3.59;100.00
14612;BME280;7392;52.078;11.650;2022-11-15T04:46:16;100509.94;;;3.59;100.00
14612;BME280;7392;52.078;11.650;2022-11-15T04:49:04;100505.53;;;3.58;100.00
14612;BME280;7392;52.078;11.650;2022-11-15T04:51:51;100503.78;;;3.59;100.00
14612;BME280;7392;52.078;11.650;2022-11-15T04:54:37;100506.44;;;3.60;100.00
14612;BME280;7392;52.078;11.650;2022-11-15T04:57:23;100501.22;;;3.62;100.00
14612;BME280;7392;52.078;11.650;2022-11-15T05:00:12;100506.53;;;3.65;100.00
14612;BME280;7392;52.078;11.650;2022-11-15T05:02:59;100500.50;;;3.67;100.00
14612;BME280;7392;52.078;11.650;2022-11-15T05:06:05;100506.66;;;3.69;100.00
14612;BME280;7392;52.078;11.650;2022-11-15T05:08:52;100515.50;;;3.73;100.00
14612;BME280;7392;52.078;11.650;2022-11-15T05:11:38;100504.09;;;3.72;100.00
14612;BME280;7392;52.078;11.650;2022-11-15T05:14:24;100506.72;;;3.74;100.00
14612;BME280;7392;52.078;11.650;2022-11-15T05:17:11;100502.34;;;3.73;100.00
14612;BME280;7392;52.078;11.650;2022-11-15T05:19:58;100505.00;;;3.74;100.00
14612;BME280;7392;52.078;11.650;2022-11-15T05:22:46;100509.41;;;3.75;100.00
14612;BME280;7392;52.078;11.650;2022-11-15T05:25:32;100507.59;;;3.73;100.00
14612;BME280;7392;52.078;11.650;2022-11-15T05:28:18;100505.84;;;3.73;100.00
14612;BME280;7392;52.078;11.650;2022-11-15T05:31:07;100498.94;;;3.77;100.00
14612;BME280;7392;52.078;11.650;2022-11-15T05:33:55;100495.56;;;3.84;100.00
14612;BME280;7392;52.078;11.650;2022-11-15T05:36:42;100499.16;;;3.86;100.00
14612;BME280;7392;52.078;11.650;2022-11-15T05:39:31;100488.72;;;3.91;100.00
14612;BME280;7392;52.078;11.650;2022-11-15T05:42:17;100481.75;;;3.93;100.00
14612;BME280;7392;52.078;11.650;2022-11-15T05:45:06;100477.47;;;3.97;100.00
14612;BME280;7392;52.078;11.650;2022-11-15T05:47:55;100485.34;;;3.97;100.00
14612;BME280;7392;52.078;11.650;2022-11-15T05:50:46;100490.59;;;3.97;100.00
14612;BME280;7392;52.078;11.650;2022-11-15T05:53:33;100494.06;;;3.96;100.00
14612;BME280;7392;52.078;11.650;2022-11-15T05:56:22;100494.00;;;3.92;100.00
14612;BME280;7392;52.078;11.650;2022-11-15T05:59:09;100501.81;;;3.89;100.00
14612;BME280;7392;52.078;11.650;2022-11-15T06:01:57;100500.06;;;3.88;100.00
14612;BME280;7392;52.078;11.650;2022-11-15T06:04:43;100499.09;;;3.85;100.00
14612;BME280;7392;52.078;11.650;2022-11-15T06:07:29;100487.66;;;3.81;100.00
14612;BME280;7392;52.078;11.650;2022-11-15T06:10:16;100485.81;;;3.79;100.00
14612;BME280;7392;52.078;11.650;2022-11-15T06:13:04;100492.00;;;3.81;100.00
14612;BME280;7392;52.078;11.650;2022-11-15T06:15:55;100499.09;;;3.85;100.00
14612;BME280;7392;52.078;11.650;2022-11-15T06:18:41;100495.59;;;3.86;100.00
14612;BME280;7392;52.078;11.650;2022-11-15T06:21:27;100507.91;;;3.87;100.00
14612;BME280;7392;52.078;11.650;2022-11-15T06:24:14;100507.00;;;3.85;100.00
14612;BME280;7392;52.078;11.650;2022-11-15T06:27:01;100508.72;;;3.83;100.00
14612;BME280;7392;52.078;11.650;2022-11-15T06:29:48;100506.94;;;3.83;100.00
14612;BME280;7392;52.078;11.650;2022-11-15T06:32:35;100528.00;;;3.85;100.00
14612;BME280;7392;52.078;11.650;2022-11-15T06:35:21;100526.25;;;3.85;100.00
14612;BME280;7392;52.078;11.650;2022-11-15T06:38:09;100531.59;;;3.88;100.00
14612;BME280;7392;52.078;11.650;2022-11-15T06:41:01;100516.78;;;3.92;100.00
14612;BME280;7392;52.078;11.650;2022-11-15T06:43:47;100525.53;;;3.92;100.00
14612;BME280;7392;52.078;11.650;2022-11-15T06:46:35;100533.44;;;3.94;100.00
14612;BME280;7392;52.078;11.650;2022-11-15T06:49:21;100533.53;;;3.97;100.00
14612;BME280;7392;52.078;11.650;2022-11-15T06:52:07;100537.13;;;4.02;100.00
14612;BME280;7392;52.078;11.650;2022-11-15T06:54:54;100538.91;;;4.03;100.00
14612;BME280;7392;52.078;11.650;2022-11-15T06:57:47;100542.47;;;4.05;100.00
14612;BME280;7392;52.078;11.650;2022-11-15T07:00:33;100544.25;;;4.08;100.00
14612;BME280;7392;52.078;11.650;2022-11-15T07:03:21;100545.97;;;4.06;100.00
14612;BME280;7392;52.078;11.650;2022-11-15T07:06:08;100549.47;;;4.05;100.00
14612;BME280;7392;52.078;11.650;2022-11-15T07:08:55;100555.56;;;4.04;100.00
14612;BME280;7392;52.078;11.650;2022-11-15T07:11:41;100554.69;;;4.03;100.00
14612;BME280;7392;52.078;11.650;2022-11-15T07:14:27;100558.16;;;4.02;100.00
14612;BME280;7392;52.078;11.650;2022-11-15T07:17:14;100559.91;;;4.02;100.00
14612;BME280;7392;52.078;11.650;2022-11-15T07:20:02;100565.97;;;3.99;100.00
14612;BME280;7392;52.078;11.650;2022-11-15T07:22:48;100566.88;;;4.00;100.00
14612;BME280;7392;52.078;11.650;2022-11-15T07:25:35;100565.13;;;4.00;100.00
14612;BME280;7392;52.078;11.650;2022-11-15T07:28:22;100576.47;;;3.99;100.00
14612;BME280;7392;52.078;11.650;2022-11-15T07:31:09;100581.78;;;4.01;100.00
14612;BME280;7392;52.078;11.650;2022-11-15T07:33:55;100573.06;;;4.02;100.00
14612;BME280;7392;52.078;11.650;2022-11-15T07:36:43;100565.22;;;4.03;100.00
14612;BME280;7392;52.078;11.650;2022-11-15T07:39:30;100570.50;;;4.06;100.00
14612;BME280;7392;52.078;11.650;2022-11-15T07:42:16;100571.44;;;4.08;100.00
14612;BME280;7392;52.078;11.650;2022-11-15T07:45:20;100564.50;;;4.12;100.00
14612;BME280;7392;52.078;11.650;2022-11-15T07:48:07;100568.97;;;4.16;100.00
14612;BME280;7392;52.078;11.650;2022-11-15T07:50:54;100573.38;;;4.17;100.00
14612;BME280;7392;52.078;11.650;2022-11-15T07:53:42;100574.41;;;4.24;100.00
14612;BME280;7392;52.078;11.650;2022-11-15T07:56:29;100573.59;;;4.28;100.00
14612;BME280;7392;52.078;11.650;2022-11-15T07:59:15;100575.44;;;4.34;100.00
14612;BME280;7392;52.078;11.650;2022-11-15T08:02:02;100574.72;;;4.39;100.00
14612;BME280;7392;52.078;11.650;2022-11-15T08:04:48;100569.59;;;4.47;100.00
14612;BME280;7392;52.078;11.650;2022-11-15T08:07:35;100566.25;;;4.56;100.00
14612;BME280;7392;52.078;11.650;2022-11-15T08:10:27;100560.28;;;4.63;100.00
14612;BME280;7392;52.078;11.650;2022-11-15T08:13:13;100563.91;;;4.71;100.00
14612;BME280;7392;52.078;11.650;2022-11-15T08:16:01;100554.41;;;4.78;100.00
14612;BME280;7392;52.078;11.650;2022-11-15T08:18:47;100550.16;;;4.86;100.00
14612;BME280;7392;52.078;11.650;2022-11-15T08:21:34;100559.94;;;4.93;100.00
14612;BME280;7392;52.078;11.650;2022-11-15T08:24:20;100557.41;;;4.99;100.00
14612;BME280;7392;52.078;11.650;2022-11-15T08:27:08;100549.66;;;5.09;100.00
14612;BME280;7392;52.078;11.650;2022-11-15T08:29:59;100549.84;;;5.18;100.00
14612;BME280;7392;52.078;11.650;2022-11-15T08:32:47;100554.41;;;5.28;100.00
14612;BME280;7392;52.078;11.650;2022-11-15T08:35:33;100549.28;;;5.39;100.00
14612;BME280;7392;52.078;11.650;2022-11-15T08:38:19;100549.47;;;5.51;100.00
14612;BME280;7392;52.078;11.650;2022-11-15T08:41:06;100546.16;;;5.65;100.00
14612;BME280;7392;52.078;11.650;2022-11-15T08:43:54;100544.59;;;5.76;100.00
14612;BME280;7392;52.078;11.650;2022-11-15T08:46:40;100535.97;;;5.89;100.00
14612;BME280;7392;52.078;11.650;2022-11-15T08:49:26;100530.03;;;6.03;100.00
14612;BME280;7392;52.078;11.650;2022-11-15T08:52:13;100535.50;;;6.18;100.00
14612;BME280;7392;52.078;11.650;2022-11-15T08:54:59;100536.56;;;6.32;100.00
14612;BME280;7392;52.078;11.650;2022-11-15T08:57:46;100529.69;;;6.47;100.00
14612;BME280;7392;52.078;11.650;2022-11-15T09:00:34;100523.72;;;6.63;100.00
14612;BME280;7392;52.078;11.650;2022-11-15T09:03:20;100521.25;;;6.80;100.00
14612;BME280;7392;52.078;11.650;2022-11-15T09:06:07;100528.41;;;6.95;100.00
14612;BME280;7392;52.078;11.650;2022-11-15T09:08:54;100519.72;;;7.08;100.00
14612;BME280;7392;52.078;11.650;2022-11-15T09:11:40;100518.13;;;7.24;100.00
14612;BME280;7392;52.078;11.650;2022-11-15T09:14:27;100519.06;;;7.37;100.00
14612;BME280;7392;52.078;11.650;2022-11-15T09:17:14;100518.28;;;7.51;100.00
14612;BME280;7392;52.078;11.650;2022-11-15T09:20:08;100514.88;;;7.70;100.00
14612;BME280;7392;52.078;11.650;2022-11-15T09:22:57;100507.03;;;7.85;100.00
14612;BME280;7392;52.078;11.650;2022-11-15T09:25:45;100506.25;;;8.02;100.00
14612;BME280;7392;52.078;11.650;2022-11-15T09:28:32;100507.19;;;8.18;100.00
14612;BME280;7392;52.078;11.650;2022-11-15T09:31:19;100499.31;;;8.36;100.00
14612;BME280;7392;52.078;11.650;2022-11-15T09:34:08;100496.75;;;8.58;100.00
14612;BME280;7392;52.078;11.650;2022-11-15T09:36:55;100492.38;;;8.77;100.00
14612;BME280;7392;52.078;11.650;2022-11-15T09:39:41;100484.44;;;8.94;100.00
14612;BME280;7392;52.078;11.650;2022-11-15T09:42:44;100486.19;;;9.12;100.00
14612;BME280;7392;52.078;11.650;2022-11-15T09:45:36;100485.31;;;9.27;100.00
14612;BME280;7392;52.078;11.650;2022-11-15T09:48:51;100485.28;;;9.42;100.00
14612;BME280;7392;52.078;11.650;2022-11-15T09:51:44;100480.88;;;9.57;100.00
14612;BME280;7392;52.078;11.650;2022-11-15T09:54:23;100483.47;;;9.72;100.00
14612;BME280;7392;52.078;11.650;2022-11-15T09:57:14;100484.31;;;9.88;100.00
14612;BME280;7392;52.078;11.650;2022-11-15T09:59:54;100481.59;;;10.00;100.00
14612;BME280;7392;52.078;11.650;2022-11-15T10:03:04;100481.53;;;10.17;100.00
14612;BME280;7392;52.078;11.650;2022-11-15T10:05:39;100470.84;;;10.31;100.00
14612;BME280;7392;52.078;11.650;2022-11-15T10:08:30;100478.75;;;10.46;100.00
14612;BME280;7392;52.078;11.650;2022-11-15T10:11:02;100477.78;;;10.60;100.00
14612;BME280;7392;52.078;11.650;2022-11-15T10:13:51;100468.00;;;10.71;100.00
14612;BME280;7392;52.078;11.650;2022-11-15T10:19:17;100473.22;;;10.80;100.00
14612;BME280;7392;52.078;11.650;2022-11-15T10:21:57;100473.22;;;10.82;100.00
14612;BME280;7392;52.078;11.650;2022-11-15T10:24:34;100452.84;;;10.79;100.00
14612;BME280;7392;52.078;11.650;2022-11-15T10:27:08;100454.63;;;10.80;100.00
14612;BME280;7392;52.078;11.650;2022-11-15T10:29:43;100451.03;;;10.88;100.00
14612;BME280;7392;52.078;11.650;2022-11-15T10:32:11;100449.19;;;10.94;100.00
14612;BME280;7392;52.078;11.650;2022-11-15T10:34:40;100449.16;;;11.00;100.00
14612;BME280;7392;52.078;11.650;2022-11-15T10:37:08;100442.91;;;11.04;100.00
14612;BME280;7392;52.078;11.650;2022-11-15T10:39:37;100446.41;;;11.11;99.59
14612;BME280;7392;52.078;11.650;2022-11-15T10:42:16;100434.81;;;11.15;99.41
14612;BME280;7392;52.078;11.650;2022-11-15T10:44:45;100435.72;;;11.19;99.16
14612;BME280;7392;52.078;11.650;2022-11-15T10:47:25;100429.44;;;11.23;98.66
14612;BME280;7392;52.078;11.650;2022-11-15T10:49:59;100425.91;;;11.22;98.22
14612;BME280;7392;52.078;11.650;2022-11-15T10:52:28;100426.78;;;11.23;97.71
14612;BME280;7392;52.078;11.650;2022-11-15T10:55:02;100422.31;;;11.28;98.03
14612;BME280;7392;52.078;11.650;2022-11-15T10:57:33;100415.16;;;11.35;98.07
14612;BME280;7392;52.078;11.650;2022-11-15T11:00:06;100419.53;;;11.37;97.91
14612;BME280;7392;52.078;11.650;2022-11-15T11:02:36;100411.56;;;11.39;97.18
14612;BME280;7392;52.078;11.650;2022-11-15T11:05:20;100420.41;;;11.41;97.15
14612;BME280;7392;52.078;11.650;2022-11-15T11:07:56;100413.31;;;11.40;96.92
14612;BME280;7392;52.078;11.650;2022-11-15T11:10:25;100408.00;;;11.41;96.11
14612;BME280;7392;52.078;11.650;2022-11-15T11:13:14;100405.31;;;11.45;96.22
14612;BME280;7392;52.078;11.650;2022-11-15T11:15:44;100410.56;;;11.49;96.26
14612;BME280;7392;52.078;11.650;2022-11-15T11:18:19;100415.78;;;11.60;96.64
14612;BME280;7392;52.078;11.650;2022-11-15T11:20:56;100413.00;;;11.69;96.46
14612;BME280;7392;52.078;11.650;2022-11-15T11:23:42;100408.44;;;11.79;96.28
14612;BME280;7392;52.078;11.650;2022-11-15T11:26:35;100410.09;;;11.91;95.75
14612;BME280;7392;52.078;11.650;2022-11-15T11:29:17;100411.78;;;11.96;94.66
14612;BME280;7392;52.078;11.650;2022-11-15T11:31:54;100409.94;;;12.03;94.01
14612;BME280;7392;52.078;11.650;2022-11-15T11:34:36;100410.72;;;12.13;93.77
14612;BME280;7392;52.078;11.650;2022-11-15T11:37:13;100408.78;;;12.21;93.41
14612;BME280;7392;52.078;11.650;2022-11-15T11:39:53;100404.22;;;12.31;93.41
14612;BME280;7392;52.078;11.650;2022-11-15T11:42:33;100397.91;;;12.37;92.58
14612;BME280;7392;52.078;11.650;2022-11-15T11:45:15;100400.44;;;12.46;91.90
14612;BME280;7392;52.078;11.650;2022-11-15T11:47:51;100402.13;;;12.53;91.41
14612;BME280;7392;52.078;11.650;2022-11-15T11:50:22;100405.56;;;12.60;90.58
14612;BME280;7392;52.078;11.650;2022-11-15T11:52:57;100394.88;;;12.63;89.49
14612;BME280;7392;52.078;11.650;2022-11-15T11:55:33;100393.91;;;12.65;89.34
14612;BME280;7392;52.078;11.650;2022-11-15T11:58:13;100385.81;;;12.73;89.10
14612;BME280;7392;52.078;11.650;2022-11-15T12:00:45;100373.25;;;12.81;89.05
14612;BME280;7392;52.078;11.650;2022-11-15T12:03:25;100371.34;;;12.88;89.02
14612;BME280;7392;52.078;11.650;2022-11-15T12:05:56;100373.06;;;12.92;88.40
14612;BME280;7392;52.078;11.650;2022-11-15T12:08:31;100372.97;;;12.97;88.14
14612;BME280;7392;52.078;11.650;2022-11-15T12:11:08;100379.09;;;13.02;88.61
14612;BME280;7392;52.078;11.650;2022-11-15T12:13:40;100373.66;;;13.06;87.96
14612;BME280;7392;52.078;11.650;2022-11-15T12:16:13;100370.06;;;13.10;87.47
14612;BME280;7392;52.078;11.650;2022-11-15T12:18:47;100365.50;;;13.17;87.23
14612;BME280;7392;52.078;11.650;2022-11-15T12:21:21;100362.66;;;13.25;87.33
14612;BME280;7392;52.078;11.650;2022-11-15T12:23:59;100346.41;;;13.39;87.25
14612;BME280;7392;52.078;11.650;2022-11-15T12:26:35;100344.47;;;13.47;86.50
14612;BME280;7392;52.078;11.650;2022-11-15T12:29:11;100355.84;;;13.57;85.47
14612;BME280;7392;52.078;11.650;2022-11-15T12:31:45;100354.81;;;13.64;84.42
14612;BME280;7392;52.078;11.650;2022-11-15T12:34:35;100352.84;;;13.74;83.71
14612;BME280;7392;52.078;11.650;2022-11-15T12:40:26;100346.97;;;13.97;82.60
14612;BME280;7392;52.078;11.650;2022-11-15T12:46:03;100332.09;;;14.24;82.53
14612;BME280;7392;52.078;11.650;2022-11-15T12:48:59;100331.97;;;14.30;81.43
14612;BME280;7392;52.078;11.650;2022-11-15T12:55:00;100330.72;;;14.45;80.27
14612;BME280;7392;52.078;11.650;2022-11-15T12:57:40;100328.06;;;14.45;79.68
14612;BME280;7392;52.078;11.650;2022-11-15T13:00:42;100326.22;;;14.47;79.50
14612;BME280;7392;52.078;11.650;2022-11-15T13:03:29;100336.84;;;14.50;79.20
14612;BME280;7392;52.078;11.650;2022-11-15T13:06:09;100329.66;;;14.52;78.67
14612;BME280;7392;52.078;11.650;2022-11-15T13:08:48;100334.94;;;14.55;78.72
14612;BME280;7392;52.078;11.650;2022-11-15T13:11:47;100330.63;;;14.48;78.79
14612;BME280;7392;52.078;11.650;2022-11-15T13:14:46;100325.66;;;14.33;78.52
14612;BME280;7392;52.078;11.650;2022-11-15T13:17:32;100326.75;;;14.24;79.18
14612;BME280;7392;52.078;11.650;2022-11-15T13:20:17;100325.09;;;14.20;79.40
14612;BME280;7392;52.078;11.650;2022-11-15T13:22:47;100326.72;;;14.26;79.77
14612;BME280;7392;52.078;11.650;2022-11-15T13:25:30;100319.44;;;14.32;79.92
14612;BME280;7392;52.078;11.650;2022-11-15T13:28:02;100320.31;;;14.33;79.71
14612;BME280;7392;52.078;11.650;2022-11-15T13:30:33;100322.22;;;14.28;80.02
14612;BME280;7392;52.078;11.650;2022-11-15T13:33:08;100311.84;;;14.15;79.83
14612;BME280;7392;52.078;11.650;2022-11-15T13:35:39;100315.63;;;14.07;80.06
14612;BME280;7392;52.078;11.650;2022-11-15T13:38:18;100311.41;;;13.96;80.59
14612;BME280;7392;52.078;11.650;2022-11-15T13:40:47;100302.63;;;13.91;81.01
14612;BME280;7392;52.078;11.650;2022-11-15T13:43:26;100304.47;;;13.88;81.57
14612;BME280;7392;52.078;11.650;2022-11-15T13:46:11;100309.03;;;13.82;81.70
14612;BME280;7392;52.078;11.650;2022-11-15T13:48:40;100304.72;;;13.77;81.66
14612;BME280;7392;52.078;11.650;2022-11-15T13:51:15;100298.66;;;13.70;81.96
14612;BME280;7392;52.078;11.650;2022-11-15T13:53:46;100292.63;;;13.60;82.14
14612;BME280;7392;52.078;11.650;2022-11-15T13:56:16;100298.13;;;13.53;82.45
14612;BME280;7392;52.078;11.650;2022-11-15T13:58:45;100292.06;;;13.46;82.86
14612;BME280;7392;52.078;11.650;2022-11-15T14:01:16;100287.72;;;13.40;83.30
14612;BME280;7392;52.078;11.650;2022-11-15T14:03:55;100290.53;;;13.34;83.60
14612;BME280;7392;52.078;11.650;2022-11-15T14:06:25;100279.94;;;13.28;83.90
14612;BME280;7392;52.078;11.650;2022-11-15T14:09:14;100272.94;;;13.24;84.00
14612;BME280;7392;52.078;11.650;2022-11-15T14:11:50;100276.59;;;13.17;84.01
14612;BME280;7392;52.078;11.650;2022-11-15T14:14:20;100274.94;;;13.11;84.32
14612;BME280;7392;52.078;11.650;2022-11-15T14:16:51;100270.63;;;13.05;84.63
14612;BME280;7392;52.078;11.650;2022-11-15T14:19:38;100268.88;;;13.03;84.84
14612;BME280;7392;52.078;11.650;2022-11-15T14:22:19;100266.28;;;13.00;85.04
14612;BME280;7392;52.078;11.650;2022-11-15T14:25:04;100262.72;;;13.01;85.15
14612;BME280;7392;52.078;11.650;2022-11-15T14:27:33;100265.41;;;12.99;85.20
14612;BME280;7392;52.078;11.650;2022-11-15T14:30:01;100264.56;;;12.97;85.22
14612;BME280;7392;52.078;11.650;2022-11-15T14:32:39;100253.09;;;12.94;84.93
14612;BME280;7392;52.078;11.650;2022-11-15T14:35:12;100246.97;;;12.88;85.01
14612;BME280;7392;52.078;11.650;2022-11-15T14:37:43;100252.41;;;12.82;84.91